createdAt,value
2019-02-21T00:00:31.573Z,27.17
2019-02-21T00:05:36.907Z,28.03
2019-02-21T00:08:11.602Z,28.87
2019-02-21T00:10:42.024Z,30.43
2019-02-21T00:13:13.366Z,28.03
2019-02-21T00:15:43.836Z,28.03
2019-02-21T00:18:13.755Z,27.10
2019-02-21T00:20:44.199Z,27.87
2019-02-21T00:23:14.994Z,28.83
2019-02-21T00:25:47.574Z,29.10
2019-02-21T00:28:19.627Z,29.80
2019-02-21T00:30:50.955Z,29.20
2019-02-21T00:33:23.912Z,27.53
2019-02-21T00:35:56.203Z,27.98
2019-02-21T00:38:27.672Z,28.37
2019-02-21T00:41:02.417Z,29.07
2019-02-21T00:43:32.888Z,29.63
2019-02-21T00:46:04.787Z,29.00
2019-02-21T00:48:36.311Z,27.27
2019-02-21T00:51:06.732Z,28.10
2019-02-21T00:53:38.056Z,28.50
2019-02-21T00:56:08.624Z,28.60
2019-02-21T00:58:37.784Z,28.70
2019-02-21T01:01:07.310Z,29.77
2019-02-21T01:03:40.756Z,30.67
2019-02-21T01:06:12.170Z,30.97
2019-02-21T01:08:43.033Z,29.70
2019-02-21T01:11:14.795Z,30.00
2019-02-21T01:13:47.033Z,29.07
2019-02-21T01:16:18.071Z,29.37
2019-02-21T01:18:48.817Z,31.13
2019-02-21T01:21:18.676Z,28.90
2019-02-21T01:23:48.569Z,28.97
2019-02-21T01:26:19.954Z,30.10
2019-02-21T01:28:50.546Z,30.00
2019-02-21T01:31:23.994Z,29.97
2019-02-21T01:33:55.608Z,30.52
2019-02-21T01:36:26.068Z,29.60
2019-02-21T01:38:57.014Z,31.07
2019-02-21T01:41:27.633Z,30.50
2019-02-21T01:43:57.398Z,30.85
2019-02-21T01:46:27.250Z,28.70
2019-02-21T01:48:59.479Z,29.00
2019-02-21T01:51:28.649Z,29.57
2019-02-21T01:53:58.743Z,28.60
2019-02-21T01:56:29.361Z,30.63
2019-02-21T01:59:00.468Z,29.77
2019-02-21T02:01:31.895Z,30.48
2019-02-21T02:06:35.679Z,29.60
2019-02-21T02:09:07.080Z,30.62
2019-02-21T02:11:37.499Z,30.50
2019-02-21T02:14:07.611Z,31.00
2019-02-21T02:16:39.016Z,29.43
2019-02-21T02:19:08.053Z,30.53
2019-02-21T02:21:38.119Z,30.40
2019-02-21T02:24:08.972Z,29.80
2019-02-21T02:26:39.633Z,30.97
2019-02-21T02:29:11.052Z,31.17
2019-02-21T02:31:44.414Z,29.07
2019-02-21T02:34:15.864Z,28.85
2019-02-21T02:36:44.525Z,29.47
2019-02-21T02:39:14.958Z,28.27
2019-02-21T02:41:46.355Z,29.67
2019-02-21T02:44:16.336Z,28.13
2019-02-21T02:46:46.255Z,28.07
2019-02-21T02:49:15.340Z,29.33
2019-02-21T02:51:47.004Z,28.27
2019-02-21T02:54:17.420Z,27.23
2019-02-21T02:56:48.788Z,26.87
2019-02-21T02:59:18.454Z,26.63
2019-02-21T03:01:48.821Z,28.13
2019-02-21T03:04:17.502Z,28.03
2019-02-21T03:06:46.605Z,27.15
2019-02-21T03:09:15.758Z,27.40
2019-02-21T03:11:47.212Z,27.17
2019-02-21T03:14:18.640Z,26.87
2019-02-21T03:16:48.987Z,27.93
2019-02-21T03:19:19.372Z,29.33
2019-02-21T03:21:49.869Z,27.57
2019-02-21T03:24:22.714Z,27.87
2019-02-21T03:26:52.393Z,28.20
2019-02-21T03:29:23.820Z,27.13
2019-02-21T03:31:55.907Z,27.82
2019-02-21T03:34:25.809Z,27.33
2019-02-21T03:36:56.666Z,26.10
2019-02-21T03:39:26.544Z,28.23
2019-02-21T03:41:57.365Z,28.02
2019-02-21T03:44:27.410Z,27.10
2019-02-21T03:46:59.787Z,30.30
2019-02-21T03:49:30.552Z,30.03
2019-02-21T03:52:00.877Z,28.47
2019-02-21T03:54:31.689Z,29.17
2019-02-21T03:57:02.389Z,29.17
2019-02-21T03:59:33.777Z,27.97
2019-02-21T04:02:08.777Z,29.47
2019-02-21T04:04:39.421Z,26.70
2019-02-21T04:07:12.876Z,28.80
2019-02-21T04:09:45.621Z,28.27
2019-02-21T04:12:16.245Z,27.97
2019-02-21T04:14:47.705Z,29.07
2019-02-21T04:19:53.461Z,27.52
2019-02-21T04:22:24.143Z,27.95
2019-02-21T04:24:55.604Z,29.50
2019-02-21T04:27:26.227Z,27.60
2019-02-21T04:29:57.653Z,27.93
2019-02-21T04:32:27.339Z,29.50
2019-02-21T04:34:57.167Z,29.63
2019-02-21T04:37:28.534Z,29.83
2019-02-21T04:39:59.177Z,29.40
2019-02-21T04:42:30.552Z,29.77
2019-02-21T04:45:00.580Z,30.23
2019-02-21T04:47:31.041Z,29.77
2019-02-21T04:50:02.486Z,29.10
2019-02-21T04:52:32.858Z,28.32
2019-02-21T04:55:03.297Z,29.07
2019-02-21T04:57:36.117Z,29.07
2019-02-21T05:00:08.734Z,28.07
2019-02-21T05:02:39.457Z,28.13
2019-02-21T05:05:12.012Z,26.90
2019-02-21T05:07:42.449Z,29.73
2019-02-21T05:10:13.242Z,28.47
2019-02-21T05:12:43.282Z,28.50
2019-02-21T05:15:14.063Z,29.83
2019-02-21T05:17:44.734Z,31.03
2019-02-21T05:20:15.147Z,29.80
2019-02-21T05:22:46.599Z,29.57
2019-02-21T05:25:17.269Z,29.70
2019-02-21T05:27:51.280Z,29.50
2019-02-21T05:30:22.543Z,30.27
2019-02-21T05:33:07.038Z,29.42
2019-02-21T05:35:39.141Z,29.80
2019-02-21T05:38:17.906Z,30.93
2019-02-21T05:40:55.065Z,31.77
2019-02-21T05:43:37.335Z,31.70
2019-02-21T05:46:19.144Z,29.43
2019-02-21T05:48:57.486Z,28.97
2019-02-21T05:51:43.540Z,32.23
2019-02-21T05:54:14.289Z,29.27
2019-02-21T05:56:51.392Z,30.00
2019-02-21T05:59:42.480Z,29.40
2019-02-21T06:02:23.609Z,29.17
2019-02-21T06:05:11.052Z,29.60
2019-02-21T06:07:43.138Z,29.90
2019-02-21T06:10:14.825Z,31.70
2019-02-21T06:12:49.098Z,32.87
2019-02-21T06:15:19.831Z,32.80
2019-02-21T06:18:08.008Z,33.13
2019-02-21T06:20:43.721Z,34.67
2019-02-21T06:23:25.113Z,33.83
2019-02-21T06:26:09.356Z,37.60
2019-02-21T06:28:40.927Z,38.83
2019-02-21T06:31:11.154Z,38.40
2019-02-21T06:33:41.879Z,36.80
2019-02-21T06:36:12.533Z,38.07
2019-02-21T06:38:43.145Z,37.80
2019-02-21T06:41:13.768Z,38.87
2019-02-21T06:43:44.213Z,37.93
2019-02-21T06:46:19.198Z,37.63
2019-02-21T06:48:51.481Z,34.57
2019-02-21T06:51:23.163Z,32.77
2019-02-21T06:53:56.781Z,33.10
2019-02-21T06:56:26.507Z,34.17
2019-02-21T06:58:57.195Z,35.03
2019-02-21T07:01:32.658Z,32.83
2019-02-21T07:04:02.364Z,34.43
2019-02-21T07:06:33.834Z,34.13
2019-02-21T07:09:04.498Z,34.23
2019-02-21T07:11:35.220Z,32.80
2019-02-21T07:14:06.654Z,32.50
2019-02-21T07:16:38.044Z,30.73
2019-02-21T07:19:10.900Z,32.03
2019-02-21T07:21:42.394Z,29.53
2019-02-21T07:24:12.241Z,27.93
2019-02-21T07:26:42.852Z,28.13
2019-02-21T07:29:14.295Z,28.57
2019-02-21T07:31:44.881Z,26.03
2019-02-21T07:34:13.961Z,26.07
2019-02-21T07:36:45.476Z,24.87
2019-02-21T07:39:18.498Z,22.77
2019-02-21T07:41:50.105Z,23.25
2019-02-21T07:44:21.489Z,23.57
2019-02-21T07:46:53.500Z,21.07
2019-02-21T07:49:25.721Z,22.87
2019-02-21T07:51:57.199Z,21.68
2019-02-21T07:54:28.461Z,21.93
2019-02-21T07:57:01.687Z,22.10
2019-02-21T07:59:32.117Z,21.13
2019-02-21T08:02:07.207Z,20.55
2019-02-21T08:04:37.190Z,21.90
2019-02-21T08:07:08.945Z,20.70
2019-02-21T08:09:41.645Z,20.47
2019-02-21T08:12:10.957Z,19.87
2019-02-21T08:14:43.430Z,19.23
2019-02-21T08:17:16.092Z,19.47
2019-02-21T08:19:47.309Z,19.02
2019-02-21T08:22:16.972Z,18.20
2019-02-21T08:24:48.371Z,19.70
2019-02-21T08:27:19.280Z,19.80
2019-02-21T08:29:49.975Z,20.27
2019-02-21T08:32:20.717Z,19.23
2019-02-21T08:34:52.620Z,17.23
2019-02-21T08:37:22.550Z,18.13
2019-02-21T08:39:52.983Z,19.13
2019-02-21T08:42:22.062Z,19.40
2019-02-21T08:44:55.379Z,18.70
2019-02-21T08:47:26.227Z,18.90
2019-02-21T08:49:55.947Z,17.98
2019-02-21T08:52:30.004Z,19.17
2019-02-21T08:55:00.678Z,18.20
2019-02-21T08:57:32.338Z,20.13
2019-02-21T09:00:05.334Z,17.65
2019-02-21T09:02:36.179Z,19.17
2019-02-21T09:05:09.353Z,18.47
2019-02-21T09:07:39.439Z,18.03
2019-02-21T09:10:13.744Z,18.50
2019-02-21T09:12:48.176Z,18.70
2019-02-21T09:15:20.013Z,17.90
2019-02-21T09:17:54.207Z,19.57
2019-02-21T09:20:24.755Z,18.53
2019-02-21T09:22:54.633Z,19.63
2019-02-21T09:25:25.448Z,19.50
2019-02-21T09:27:56.049Z,19.05
2019-02-21T09:30:25.972Z,20.43
2019-02-21T09:32:58.985Z,19.23
2019-02-21T09:35:30.383Z,20.43
2019-02-21T09:38:00.269Z,19.65
2019-02-21T09:40:30.666Z,18.73
2019-02-21T09:43:03.957Z,19.77
2019-02-21T09:45:37.264Z,19.90
2019-02-21T09:48:13.839Z,19.90
2019-02-21T09:50:43.938Z,19.43
2019-02-21T09:53:14.286Z,19.47
2019-02-21T09:55:44.741Z,21.57
2019-02-21T09:58:16.146Z,19.40
2019-02-21T10:00:46.572Z,20.40
2019-02-21T10:03:16.306Z,20.60
2019-02-21T10:05:46.700Z,20.50
2019-02-21T10:08:17.553Z,20.87
2019-02-21T10:10:47.406Z,21.03
2019-02-21T10:13:17.036Z,20.47
2019-02-21T10:15:48.555Z,20.10
2019-02-21T10:18:19.429Z,20.37
2019-02-21T10:20:50.291Z,19.70
2019-02-21T10:23:21.107Z,19.73
2019-02-21T10:25:52.613Z,20.70
2019-02-21T10:28:23.032Z,20.53
2019-02-21T10:30:55.769Z,20.17
2019-02-21T10:33:26.261Z,20.20
2019-02-21T10:35:57.108Z,21.67
2019-02-21T10:38:27.731Z,20.97
2019-02-21T10:40:58.195Z,19.50
2019-02-21T10:43:27.909Z,21.83
2019-02-21T10:45:58.844Z,20.60
2019-02-21T10:48:29.274Z,20.03
2019-02-21T10:51:01.259Z,21.00
2019-02-21T10:53:31.762Z,21.53
2019-02-21T10:56:00.874Z,22.58
2019-02-21T10:58:31.287Z,21.93
2019-02-21T11:03:38.548Z,21.30
2019-02-21T11:06:16.053Z,20.10
2019-02-21T11:08:46.088Z,20.97
2019-02-21T11:11:17.283Z,21.17
2019-02-21T11:13:47.221Z,20.13
2019-02-21T11:16:18.056Z,20.17
2019-02-21T11:18:50.903Z,19.80
2019-02-21T11:21:21.587Z,20.13
2019-02-21T11:23:53.081Z,20.55
2019-02-21T11:26:23.584Z,20.40
2019-02-21T11:28:54.582Z,21.70
2019-02-21T11:31:27.961Z,20.73
2019-02-21T11:33:57.773Z,20.17
2019-02-21T11:36:31.255Z,20.97
2019-02-21T11:39:03.987Z,20.63
2019-02-21T11:41:34.611Z,20.73
2019-02-21T11:44:05.523Z,21.42
2019-02-21T11:46:36.975Z,21.50
2019-02-21T11:49:09.387Z,21.23
2019-02-21T11:51:39.956Z,21.07
2019-02-21T11:54:14.637Z,19.33
2019-02-21T11:56:45.908Z,19.27
2019-02-21T11:59:18.189Z,19.57
2019-02-21T12:01:49.549Z,21.20
2019-02-21T12:04:19.407Z,21.03
2019-02-21T12:06:50.172Z,19.43
2019-02-21T12:09:20.787Z,19.47
2019-02-21T12:11:50.841Z,20.63
2019-02-21T12:14:23.130Z,19.40
2019-02-21T12:16:53.579Z,19.63
2019-02-21T12:19:24.016Z,18.40
2019-02-21T12:21:59.169Z,16.20
2019-02-21T12:24:26.991Z,17.67
2019-02-21T12:26:56.681Z,15.37
2019-02-21T12:29:27.112Z,13.23
2019-02-21T12:31:58.005Z,11.90
2019-02-21T12:34:28.600Z,11.60
2019-02-21T12:36:58.912Z,11.67
2019-02-21T12:39:29.691Z,12.53
2019-02-21T12:41:59.783Z,13.47
2019-02-21T12:44:30.189Z,14.33
2019-02-21T12:47:02.489Z,13.63
2019-02-21T12:49:33.768Z,14.60
2019-02-21T12:52:08.886Z,13.73
2019-02-21T12:54:39.177Z,12.83
2019-02-21T12:57:14.836Z,13.83
2019-02-21T12:59:46.467Z,13.32
2019-02-21T13:04:50.643Z,12.60
2019-02-21T13:07:22.093Z,13.87
2019-02-21T13:09:52.538Z,13.90
2019-02-21T13:12:22.605Z,13.13
2019-02-21T13:14:53.044Z,12.37
2019-02-21T13:17:22.946Z,12.63
2019-02-21T13:19:52.592Z,14.05
2019-02-21T13:22:24.088Z,13.50
2019-02-21T13:24:53.739Z,14.27
2019-02-21T13:27:25.165Z,14.77
2019-02-21T13:29:54.829Z,15.23
2019-02-21T13:32:23.100Z,15.83
2019-02-21T13:34:51.396Z,15.00
2019-02-21T13:37:28.876Z,16.50
2019-02-21T13:39:55.101Z,16.27
2019-02-21T13:42:28.195Z,16.70
2019-02-21T13:44:57.546Z,16.57
2019-02-21T13:47:30.802Z,16.63
2019-02-21T13:50:01.264Z,16.53
2019-02-21T13:52:32.663Z,16.13
2019-02-21T13:57:38.603Z,16.43
2019-02-21T14:00:16.947Z,16.30
2019-02-21T14:02:49.012Z,14.87
2019-02-21T14:05:18.858Z,15.07
2019-02-21T14:07:48.719Z,14.87
2019-02-21T14:10:19.956Z,15.63
2019-02-21T14:12:50.580Z,14.67
2019-02-21T14:15:23.475Z,12.77
2019-02-21T14:17:52.611Z,10.55
2019-02-21T14:20:25.088Z,10.23
2019-02-21T14:22:53.610Z,10.10
2019-02-21T14:25:21.901Z,10.97
2019-02-21T14:27:51.682Z,11.10
2019-02-21T14:32:57.395Z,12.87
2019-02-21T14:35:28.885Z,13.03
2019-02-21T14:37:57.965Z,12.90
2019-02-21T14:40:28.923Z,13.83
2019-02-21T14:42:59.703Z,14.23
2019-02-21T14:45:30.206Z,12.90
2019-02-21T14:48:01.047Z,13.20
2019-02-21T14:50:31.500Z,12.57
2019-02-21T14:53:02.946Z,13.40
2019-02-21T14:55:33.876Z,12.97
2019-02-21T14:58:04.524Z,13.67
2019-02-21T15:00:34.614Z,14.47
2019-02-21T15:03:07.925Z,14.17
2019-02-21T15:05:37.612Z,14.23
2019-02-21T15:08:07.472Z,14.70
2019-02-21T15:10:37.623Z,13.63
2019-02-21T15:13:08.285Z,14.23
2019-02-21T15:15:38.698Z,14.37
2019-02-21T15:18:11.221Z,13.67
2019-02-21T15:20:43.445Z,13.67
2019-02-21T15:23:13.939Z,14.37
2019-02-21T15:25:43.817Z,13.20
2019-02-21T15:28:16.757Z,12.73
2019-02-21T15:30:49.654Z,13.00
2019-02-21T15:33:19.309Z,12.80
2019-02-21T15:35:50.810Z,13.67
2019-02-21T15:38:20.657Z,12.77
2019-02-21T15:40:50.582Z,13.60
2019-02-21T15:43:20.972Z,13.00
2019-02-21T15:45:50.687Z,12.78
2019-02-21T15:48:19.057Z,13.30
2019-02-21T15:50:49.906Z,12.65
2019-02-21T15:53:19.796Z,13.30
2019-02-21T15:55:50.647Z,13.50
2019-02-21T15:58:20.462Z,13.60
2019-02-21T16:00:50.318Z,13.37
2019-02-21T16:03:22.544Z,14.03
2019-02-21T16:05:52.394Z,13.88
2019-02-21T16:08:22.835Z,14.07
2019-02-21T16:10:53.526Z,14.77
2019-02-21T16:13:23.649Z,14.07
2019-02-21T16:15:54.677Z,14.78
2019-02-21T16:18:25.526Z,14.67
2019-02-21T16:20:55.913Z,14.67
2019-02-21T16:23:31.571Z,15.07
2019-02-21T16:26:01.553Z,15.03
2019-02-21T16:28:32.862Z,15.33
2019-02-21T16:31:04.331Z,15.30
2019-02-21T16:33:33.424Z,15.23
2019-02-21T16:36:08.525Z,15.25
2019-02-21T16:38:38.987Z,16.53
2019-02-21T16:41:09.641Z,15.73
2019-02-21T16:43:40.074Z,15.47
2019-02-21T16:46:10.510Z,15.57
2019-02-21T16:48:41.193Z,15.57
2019-02-21T16:51:12.603Z,18.63
2019-02-21T16:53:42.959Z,20.93
2019-02-21T16:56:14.347Z,16.17
2019-02-21T16:58:45.268Z,15.87
2019-02-21T17:01:29.993Z,14.60
2019-02-21T17:04:01.469Z,16.30
2019-02-21T17:06:31.302Z,15.80
2019-02-21T17:11:36.642Z,16.63
2019-02-21T17:14:13.427Z,15.80
2019-02-21T17:16:43.811Z,16.63
2019-02-21T17:19:14.240Z,16.50
2019-02-21T17:21:43.308Z,16.00
2019-02-21T17:24:15.669Z,15.93
2019-02-21T17:26:46.020Z,15.33
2019-02-21T17:29:17.527Z,15.10
2019-02-21T17:31:48.874Z,15.17
2019-02-21T17:34:18.582Z,15.87
2019-02-21T17:36:48.549Z,18.47
2019-02-21T17:39:17.893Z,16.77
2019-02-21T17:41:46.158Z,17.63
2019-02-21T17:44:15.236Z,16.30
2019-02-21T17:46:44.081Z,16.13
2019-02-21T17:49:15.637Z,16.27
2019-02-21T17:51:47.872Z,16.48
2019-02-21T17:54:20.363Z,15.60
2019-02-21T17:56:53.300Z,15.63
2019-02-21T17:59:24.725Z,15.63
2019-02-21T18:01:55.124Z,15.43
2019-02-21T18:04:26.007Z,17.10
2019-02-21T18:06:59.247Z,16.80
2019-02-21T18:12:05.266Z,17.50
2019-02-21T18:14:35.279Z,18.17
2019-02-21T18:17:05.548Z,18.80
2019-02-21T18:19:35.257Z,17.37
2019-02-21T18:22:08.497Z,18.87
2019-02-21T18:24:40.481Z,17.40
2019-02-21T18:27:11.865Z,17.97
2019-02-21T18:29:43.822Z,18.17
2019-02-21T18:32:14.325Z,17.13
2019-02-21T18:34:45.717Z,17.63
2019-02-21T18:37:17.008Z,17.30
2019-02-21T18:39:46.862Z,17.40
2019-02-21T18:42:16.653Z,18.13
2019-02-21T18:44:46.310Z,16.70
2019-02-21T18:47:17.646Z,17.10
2019-02-21T18:49:51.794Z,17.60
2019-02-21T18:52:21.462Z,16.60
2019-02-21T18:54:52.723Z,17.93
2019-02-21T18:57:22.430Z,19.47
2019-02-21T18:59:52.463Z,17.42
2019-02-21T19:02:22.818Z,24.87
2019-02-21T19:04:54.292Z,21.47
2019-02-21T19:07:25.684Z,19.87
2019-02-21T19:09:56.134Z,20.52
2019-02-21T19:12:26.471Z,19.57
2019-02-21T19:14:58.367Z,18.60
2019-02-21T19:17:29.797Z,19.77
2019-02-21T19:20:01.103Z,19.70
2019-02-21T19:22:33.188Z,19.53
2019-02-21T19:25:06.023Z,19.00
2019-02-21T19:27:37.708Z,18.80
2019-02-21T19:30:10.051Z,20.30
2019-02-21T19:32:40.484Z,19.30
2019-02-21T19:35:10.962Z,20.00
2019-02-21T19:37:47.035Z,20.00
2019-02-21T19:40:22.286Z,19.70
2019-02-21T19:42:52.863Z,20.50
2019-02-21T19:45:23.509Z,22.33
2019-02-21T19:47:55.666Z,20.30
2019-02-21T19:50:25.891Z,20.73
2019-02-21T19:52:56.342Z,19.53
2019-02-21T19:55:28.356Z,20.90
2019-02-21T19:57:59.149Z,21.70
2019-02-21T20:00:31.439Z,24.33
2019-02-21T20:03:01.124Z,19.83
2019-02-21T20:05:30.851Z,20.00
2019-02-21T20:08:08.691Z,19.02
2019-02-21T20:10:33.214Z,20.33
2019-02-21T20:15:40.631Z,20.00
2019-02-21T20:18:10.227Z,20.50
2019-02-21T20:20:41.655Z,20.03
2019-02-21T20:23:13.155Z,20.23
2019-02-21T20:25:44.528Z,20.37
2019-02-21T20:28:14.544Z,20.10
2019-02-21T20:30:45.200Z,21.60
2019-02-21T20:33:16.474Z,19.60
2019-02-21T20:35:48.593Z,18.67
2019-02-21T20:38:31.650Z,20.00
2019-02-21T20:40:54.379Z,19.00
2019-02-21T20:43:24.151Z,20.80
2019-02-21T20:45:55.407Z,19.87
2019-02-21T20:48:25.732Z,20.00
2019-02-21T20:50:57.133Z,21.27
2019-02-21T20:53:27.568Z,19.90
2019-02-21T20:55:59.906Z,20.65
2019-02-21T20:58:33.326Z,20.37
2019-02-21T21:03:40.474Z,20.87
2019-02-21T21:06:11.083Z,20.17
2019-02-21T21:08:44.322Z,19.73
2019-02-21T21:13:49.659Z,22.00
2019-02-21T21:16:20.815Z,21.70
2019-02-21T21:18:54.350Z,20.87
2019-02-21T21:21:26.482Z,22.27
2019-02-21T21:23:57.015Z,22.17
2019-02-21T21:31:36.076Z,22.17
2019-02-21T21:34:07.311Z,22.10
2019-02-21T21:36:40.151Z,22.70
2019-02-21T21:39:10.536Z,22.57
2019-02-21T21:41:41.332Z,22.37
2019-02-21T21:44:10.949Z,22.90
2019-02-21T21:46:40.109Z,24.27
2019-02-21T21:49:11.573Z,21.73
2019-02-21T21:51:42.926Z,20.93
2019-02-21T21:54:13.122Z,21.80
2019-02-21T21:56:42.654Z,21.60
2019-02-21T21:59:12.256Z,20.70
2019-02-21T22:01:40.795Z,21.83
2019-02-21T22:04:11.473Z,20.53
2019-02-21T22:06:42.259Z,21.83
2019-02-21T22:09:13.197Z,23.20
2019-02-21T22:11:43.085Z,22.10
2019-02-21T22:14:13.872Z,21.43
2019-02-21T22:16:44.628Z,22.00
2019-02-21T22:19:15.406Z,21.30
2019-02-21T22:21:46.787Z,22.27
2019-02-21T22:24:16.584Z,21.50
2019-02-21T22:26:47.183Z,21.93
2019-02-21T22:29:18.099Z,21.07
2019-02-21T22:31:50.160Z,21.83
2019-02-21T22:34:20.545Z,20.43
2019-02-21T22:36:51.153Z,20.97
2019-02-21T22:39:23.765Z,21.37
2019-02-21T22:41:54.650Z,22.40
2019-02-21T22:44:26.035Z,21.10
2019-02-21T22:46:57.407Z,22.10
2019-02-21T22:49:27.984Z,21.90
2019-02-21T22:51:57.060Z,20.95
2019-02-21T22:54:29.332Z,20.85
2019-02-21T22:57:01.904Z,21.93
2019-02-21T22:59:32.307Z,22.17
2019-02-21T23:04:41.039Z,22.07
2019-02-21T23:07:14.339Z,21.33
2019-02-21T23:09:44.161Z,21.60
2019-02-21T23:12:16.974Z,22.47
2019-02-21T23:14:50.100Z,22.63
2019-02-21T23:17:21.479Z,21.73
2019-02-21T23:19:51.347Z,22.52
2019-02-21T23:22:21.864Z,22.27
2019-02-21T23:24:52.639Z,22.60
2019-02-21T23:27:22.308Z,22.87
2019-02-21T23:29:53.176Z,22.30
2019-02-21T23:32:27.014Z,22.60
2019-02-21T23:34:58.371Z,22.57
2019-02-21T23:37:28.801Z,22.40
2019-02-21T23:39:59.209Z,22.85
2019-02-21T23:42:29.600Z,21.63
2019-02-21T23:45:02.261Z,23.70
2019-02-21T23:47:32.624Z,21.93
2019-02-21T23:50:01.945Z,21.57
2019-02-21T23:52:33.401Z,21.87
2019-02-21T23:55:03.136Z,22.57
2019-02-21T23:57:34.227Z,22.93
